Latest Weather Observations for Camooweal

IDQ60801

Issued at 10:35 am EST Tuesday 16 September 2014 (issued every 30 minutes, with the page automatically refreshed every 10 minutes)

About weather observations | Map of weather stations | Latest weather observations for QLD | Other Formats
Station Details ID: 037010 Name: CAMOOWEAL TOWNSHIP Lat: -19.92 Lon: 138.12 Height: 231.2 m
Data from the previous 72 hours. | See also: Recent months at Camooweal
Date/Time
EST
Temp
°C
App
Temp
°C
Dew
Point
Rel
Hum
%
Delta-T
°C
Wind Press
QNH
hPa
Press
MSL
hPa
Rain
since 9 am
mm
Dir
 
Spd
km/h
Gust
km/h
Spd
kts
Gust
kts
16/10:30am 30.1 28.3 9.6 28 11.6 E 9 17 5 9 1016.9 1015.8 0.0
16/10:00am 28.9 27.5 11.0 33 10.3 ESE 9 13 5 7 1017.2 1016.1 0.0
16/09:30am 27.2 27.0 13.5 42 8.2 SSW 7 13 4 7 1017.0 1015.9 0.0
16/09:00am 26.0 26.0 14.1 47 7.1 NNE 7 11 4 6 1016.6 1015.5 0.0
16/08:30am 24.3 24.3 14.1 53 6.1 N 7 11 4 6 1016.5 1015.4 0.0
16/08:00am 22.6 22.4 11.7 50 6.2 E 4 7 2 4 1016.2 1015.1 0.0
16/07:30am 20.9 19.6 11.3 54 5.4 NE 9 13 5 7 1015.7 1014.6 0.0
16/07:00am 19.3 17.2 8.3 49 5.8 N 9 11 5 6 1015.5 1014.4 0.0
16/06:30am 19.3 16.9 5.4 40 6.9 E 7 11 4 6 1015.0 1014.0 0.0
16/06:00am 18.8 16.5 4.6 39 6.9 S 6 7 3 4 1014.8 1013.8 0.0
16/05:30am 21.0 17.9 3.7 32 8.4 ENE 9 11 5 6 1014.1 1013.1 0.0
16/05:00am 21.8 18.0 2.0 27 9.3 ENE 11 15 6 8 1013.8 1012.8 0.0
16/04:30am 21.3 17.9 1.6 27 9.2 E 9 13 5 7 1013.7 1012.7 0.0
16/04:00am 22.6 17.6 1.6 25 9.9 E 17 26 9 14 1013.6 1012.6 0.0
16/03:30am 21.8 17.2 1.5 26 9.5 E 15 17 8 9 1013.4 1012.3 0.0
16/03:00am 22.0 17.7 1.1 25 9.7 ESE 13 15 7 8 1013.4 1012.3 0.0
16/02:30am 22.1 17.8 1.2 25 9.7 ESE 13 15 7 8 1013.6 1012.6 0.0
16/02:00am 22.3 18.3 0.8 24 9.9 SE 11 13 6 7 1013.9 1012.9 0.0
16/01:30am 23.6 19.8 1.9 24 10.4 SE 11 17 6 9 1014.0 1013.0 0.0
16/01:00am 23.0 19.1 1.4 24 10.2 SE 11 13 6 7 1014.1 1013.1 0.0
16/12:30am 23.5 21.0 1.8 24 10.3 SSW 4 7 2 4 1014.3 1013.3 0.0
16/12:00am 24.9 21.4 1.1 21 11.3 SSE 9 11 5 6 1014.3 1013.3 0.0
 
Date/Time
EST
Temp
°C
App
Temp
°C
Dew
Point
Rel
Hum
%
Delta-T
°C
Wind Press
QNH
hPa
Press
MSL
hPa
Rain
since 9 am
mm
Dir
 
Spd
km/h
Gust
km/h
Spd
kts
Gust
kts
15/11:30pm 26.3 21.4 2.3 21 11.8 SE 17 20 9 11 1014.0 1013.0 0.0
15/11:00pm 26.0 21.5 2.0 21 11.7 SE 15 19 8 10 1014.1 1013.1 0.0
15/10:30pm 26.8 22.3 2.0 20 12.1 SSE 15 17 8 9 1014.1 1013.1 0.0
15/10:00pm 26.6 22.8 1.8 20 12.1 SSE 11 13 6 7 1014.1 1013.1 0.0
15/09:30pm 27.5 23.6 3.2 21 12.2 SSE 13 17 7 9 1014.0 1013.0 0.0
15/09:00pm 25.6 21.9 2.3 22 11.4 SE 11 13 6 7 1013.9 1012.9 0.0
15/08:30pm 25.9 22.1 1.9 21 11.6 S 11 13 6 7 1013.5 1012.5 0.0
15/08:00pm 27.2 23.5 2.3 20 12.3 SSE 11 13 6 7 1013.2 1012.1 0.0
15/07:30pm 28.1 24.4 2.3 19 12.8 S 11 11 6 6 1012.7 1011.6 0.0
15/07:00pm 29.4 26.0 1.8 17 13.7 S 9 11 5 6 1012.3 1011.2 0.0
15/06:30pm 31.5 28.1 1.8 15 14.9 S 9 15 5 8 1012.0 1010.9 0.0
15/06:00pm 32.8 30.0 1.8 14 15.7 SE 6 13 3 7 1011.9 1010.8 0.0
15/05:30pm 33.4 30.6 3.3 15 15.7 N 7 13 4 7 1011.8 1010.7 0.0
15/05:00pm 32.9 30.2 2.9 15 15.5 SE 6 9 3 5 1011.8 1010.7 0.0
15/04:30pm 33.6 30.5 3.4 15 15.8 W 9 15 5 8 1011.9 1010.8 0.0
15/04:00pm 33.9 31.4 3.6 15 15.9 W 6 13 3 7 1012.0 1010.9 0.0
15/03:30pm 33.0 29.0 2.9 15 15.5 E 13 20 7 11 1012.3 1011.2 0.0
15/03:00pm 33.5 30.7 3.3 15 15.8 SW 7 13 4 7 1012.6 1011.5 0.0
15/02:30pm 32.6 28.9 2.6 15 15.4 SE 11 15 6 8 1013.0 1011.9 0.0
15/02:00pm 32.9 29.7 2.9 15 15.5 ENE 9 19 5 10 1013.4 1012.3 0.0
15/01:30pm 32.5 29.8 3.5 16 15.1 SW 7 11 4 6 1013.8 1012.8 0.0
15/01:00pm 32.7 28.8 3.6 16 15.2 NNE 13 20 7 11 1014.3 1013.3 0.0
15/12:30pm 32.1 29.2 4.8 18 14.5 N 9 17 5 9 1014.8 1013.8 0.0
15/12:00pm 32.6 28.9 4.4 17 14.9 NNE 13 26 7 14 1015.5 1014.4 0.0
15/11:30am 31.3 27.2 4.2 18 14.2 NNE 15 20 8 11 1015.9 1014.8 0.0
15/11:00am 30.6 26.6 5.1 20 13.5 NE 15 24 8 13 1016.2 1015.1 0.0
15/10:30am 29.9 25.6 5.2 21 13.0 NNE 17 26 9 14 1016.4 1015.3 0.0
15/10:00am 28.7 24.8 7.3 26 11.6 NE 17 28 9 15 1016.6 1015.5 0.0
15/09:30am 28.5 25.0 8.7 29 11.0 ENE 17 24 9 13 1016.6 1015.5 0.0
15/09:00am 26.8 24.2 9.2 33 9.8 ENE 13 19 7 10 1016.5 1015.4 0.0
15/08:30am 25.3 22.9 10.0 38 8.5 ENE 13 20 7 11 1016.3 1015.2 0.0
15/08:00am 23.2 21.6 10.3 44 7.2 ENE 9 13 5 7 1015.8 1014.7 0.0
15/07:30am 20.2 17.7 8.2 46 6.3 E 11 15 6 8 1015.5 1014.4 0.0
15/07:00am 18.7 15.9 6.9 46 6.0 E 11 15 6 8 1015.0 1014.0 0.0
15/06:30am 19.2 16.3 6.7 44 6.3 ENE 11 15 6 8 1014.6 1013.6 0.0
15/06:00am 19.1 16.5 6.2 43 6.5 ENE 9 13 5 7 1014.3 1013.3 0.0
15/05:30am 19.9 17.9 7.3 44 6.5 ENE 7 9 4 5 1014.0 1013.0 0.0
15/05:00am 20.4 17.5 6.4 40 7.1 NNE 11 15 6 8 1013.6 1012.6 0.0
15/04:30am 19.3 17.0 5.7 41 6.8 NE 7 11 4 6 1013.5 1012.5 0.0
15/04:00am 20.9 17.6 4.5 34 8.1 NNE 11 13 6 7 1013.6 1012.6 0.0
15/03:30am 21.0 17.4 2.8 30 8.7 NE 11 13 6 7 1013.8 1012.8 0.0
15/03:00am 20.9 17.9 1.7 28 8.9 E 7 9 4 5 1014.0 1013.0 0.0
15/02:30am 21.4 18.4 2.2 28 9.1 NE 7 11 4 6 1014.2 1013.2 0.0
15/02:00am 21.5 18.4 1.2 26 9.4 ENE 7 11 4 6 1014.4 1013.4 0.0
15/01:30am 24.1 20.6 3.4 26 10.2 N 11 22 6 12 1014.5 1013.5 0.0
15/01:00am 21.1 17.9 2.9 30 8.7 SSW 9 11 5 6 1014.5 1013.5 0.0
15/12:30am 21.4 19.0 2.2 28 9.1 SE 4 6 2 3 1014.7 1013.7 0.0
15/12:00am 21.8 19.1 2.5 28 9.2 SSE 6 7 3 4 1014.7 1013.7 0.0
 
Date/Time
EST
Temp
°C
App
Temp
°C
Dew
Point
Rel
Hum
%
Delta-T
°C
Wind Press
QNH
hPa
Press
MSL
hPa
Rain
since 9 am
mm
Dir
 
Spd
km/h
Gust
km/h
Spd
kts
Gust
kts
14/11:30pm 21.5 18.8 2.7 29 9.0 S 6 7 3 4 1014.7 1013.7 0.0
14/11:00pm 22.5 20.2 2.6 27 9.5 SSE 4 7 2 4 1014.6 1013.6 0.0
14/10:30pm 24.0 21.1 2.8 25 10.3 ESE 7 9 4 5 1014.5 1013.5 0.0
14/10:00pm 25.3 21.8 3.3 24 10.9 E 11 13 6 7 1014.4 1013.4 0.0
14/09:30pm 24.0 20.7 2.2 24 10.5 SSE 9 13 5 7 1014.1 1013.1 0.0
14/09:00pm 24.2 21.3 2.4 24 10.5 S 7 9 4 5 1013.9 1012.9 0.0
14/08:30pm 25.6 22.4 2.9 23 11.2 SSW 9 11 5 6 1013.6 1012.6 0.0
14/08:00pm 26.4 22.8 3.0 22 11.6 S 11 11 6 6 1013.3 1012.2 0.0
14/07:30pm 27.7 24.4 2.7 20 12.5 S 9 9 5 5 1013.0 1011.9 0.0
14/07:00pm 29.8 26.2 2.9 18 13.6 S 11 15 6 8 1012.8 1011.7 0.0
14/06:30pm 31.0 27.4 3.1 17 14.3 S 11 15 6 8 1012.5 1011.4 0.0
14/06:00pm 32.2 28.3 3.2 16 15.0 SSW 13 20 7 11 1012.3 1011.2 0.0
14/05:30pm 32.7 28.8 3.6 16 15.2 SW 13 19 7 10 1012.3 1011.2 0.0
14/05:00pm 32.9 30.1 2.9 15 15.5 NNW 7 15 4 8 1012.2 1011.1 0.0
14/04:30pm 33.6 30.3 2.4 14 16.0 S 9 17 5 9 1012.2 1011.1 0.0
14/04:00pm 33.5 28.3 2.4 14 16.0 S 19 22 10 12 1012.1 1011.0 0.0
14/03:30pm 33.2 27.9 2.1 14 15.9 S 19 28 10 15 1012.3 1011.2 0.0
14/03:00pm 33.0 30.0 2.0 14 15.8 SSW 7 17 4 9 1012.7 1011.6 0.0
14/02:30pm 32.9 28.4 1.9 14 15.7 SSW 15 26 8 14 1013.2 1012.1 0.0
14/02:00pm 33.6 29.5 2.4 14 16.0 ESE 13 26 7 14 1013.7 1012.7 0.0
14/01:30pm 32.1 27.5 1.3 14 15.4 E 15 22 8 12 1014.2 1013.2 0.0
14/01:00pm 32.3 27.7 1.4 14 15.5 S 15 24 8 13 1014.8 1013.8 0.0
14/12:30pm 31.4 27.4 0.7 14 15.1 SSW 11 17 6 9 1015.5 1014.4 0.0
14/12:00pm 31.6 28.0 0.9 14 15.2 SSW 9 15 5 8 1016.0 1014.9 0.0
14/11:30am 30.9 25.2 0.3 14 14.9 SE 20 26 11 14 1016.4 1015.3 0.0
14/11:00am 30.2 25.1 0.7 15 14.4 SSE 17 24 9 13 1016.8 1015.7 0.0
14/10:30am 30.5 26.6 3.5 18 13.9 E 13 20 7 11 1017.0 1015.9 0.0
14/10:00am 29.0 24.9 4.5 21 12.7 E 15 20 8 11 1017.2 1016.1 0.0
14/09:30am 27.2 23.2 3.0 21 12.1 ESE 13 17 7 9 1017.3 1016.3 0.0
14/09:00am 24.8 21.4 1.7 22 11.1 ESE 9 13 5 7 1017.2 1016.1 0.0
14/08:30am 22.2 18.1 0.1 23 10.1 SE 11 17 6 9 1017.1 1016.0 0.0
14/08:00am 17.1 13.8 -1.1 29 7.7 S 6 9 3 5 1016.9 1015.8 0.0
14/07:30am 13.7 10.3 -2.3 33 6.4 S 6 7 3 4 1016.8 1015.7 0.0
14/07:00am 12.7 9.0 -2.7 34 6.1 SSW 7 9 4 5 1016.6 1015.5 0.0
14/06:30am 12.9 9.5 -2.2 35 6.0 SSW 6 7 3 4 1016.3 1015.2 0.0
14/06:00am 13.1 9.4 -2.8 33 6.3 SSW 7 9 4 5 1016.0 1014.9 0.0
14/05:30am 13.4 9.9 -2.5 33 6.3 SW 6 7 3 4 1015.8 1014.7 0.0
14/05:00am 13.6 10.5 -2.3 33 6.4 SW 4 9 2 5 1015.6 1014.5 0.0
14/04:30am 14.4 11.0 -2.1 32 6.7 SSW 6 9 3 5 1015.5 1014.4 0.0
14/04:00am 14.2 10.5 -3.1 30 6.9 SSW 7 9 4 5 1015.5 1014.4 0.0
14/03:30am 14.8 11.3 -2.6 30 7.0 SSW 6 7 3 4 1015.7 1014.6 0.0
14/03:00am 15.2 11.2 -2.2 30 7.1 SSW 9 11 5 6 1015.8 1014.7 0.0
14/02:30am 15.9 11.8 -3.1 27 7.7 SSW 9 11 5 6 1016.1 1015.0 0.0
14/02:00am 15.4 11.7 -4.5 25 7.7 SSW 6 9 3 5 1016.4 1015.3 0.0
14/01:30am 16.4 12.5 -4.2 24 8.2 SSW 7 9 4 5 1016.6 1015.5 0.0
14/01:00am 17.4 13.3 -3.4 24 8.5 SW 9 9 5 5 1016.5 1015.4 0.0
14/12:30am 17.8 13.7 -3.0 24 8.6 SSW 9 9 5 5 1016.7 1015.6 0.0
14/12:00am 18.2 14.0 -3.8 22 8.9 SSW 9 11 5 6 1016.8 1015.7 0.0
 
Date/Time
EST
Temp
°C
App
Temp
°C
Dew
Point
Rel
Hum
%
Delta-T
°C
Wind Press
QNH
hPa
Press
MSL
hPa
Rain
since 9 am
mm
Dir
 
Spd
km/h
Gust
km/h
Spd
kts
Gust
kts
13/11:30pm 18.9 14.3 -3.9 21 9.3 S 11 13 6 7 1017.0 1015.9 0.0
13/11:00pm 19.9 14.9 -4.4 19 9.9 SSW 13 15 7 8 1016.9 1015.8 0.0
13/10:30pm 21.6 16.3 -3.7 18 10.7 S 15 19 8 10 1016.8 1015.7 0.0
13/10:00pm 21.2 16.1 -4.8 17 10.7 S 13 17 7 9 1017.0 1015.9 0.0
13/09:30pm 21.0 15.8 -5.7 16 10.8 SSW 13 15 7 8 1016.9 1015.8 0.0
13/09:00pm 22.6 18.3 -5.3 15 11.5 SSW 9 9 5 5 1016.8 1015.7 0.0
13/08:30pm 22.6 17.8 -6.2 14 11.7 S 11 13 6 7 1016.6 1015.5 0.0
13/08:00pm 23.7 19.3 -6.3 13 12.2 S 9 13 5 7 1016.3 1015.2 0.0
13/07:30pm 25.4 20.2 -6.0 12 13.1 S 13 15 7 8 1015.9 1014.8 0.0
13/07:00pm 27.4 22.1 -6.9 10 14.3 S 13 15 7 8 1015.6 1014.5 0.0
13/06:30pm 29.0 23.8 -5.7 10 15.0 S 13 20 7 11 1015.4 1014.3 0.0
13/06:00pm 30.6 24.1 -5.8 9 16.0 S 20 28 11 15 1015.2 1014.1 0.0
13/05:30pm 31.5 25.9 -6.7 8 16.6 SE 15 20 8 11 1014.9 1013.9 0.0
13/05:00pm 31.5 26.0 -5.2 9 16.4 SE 15 24 8 13 1014.9 1013.9 0.0
13/04:30pm 32.0 26.0 -6.3 8 16.8 SSE 17 20 9 11 1014.8 1013.8 0.0
13/04:00pm 32.3 26.7 -6.1 8 17.0 S 15 28 8 15 1014.9 1013.9 0.0
13/03:30pm 31.8 26.6 -6.5 8 16.8 S 13 20 7 11 1015.2 1014.1 0.0
13/03:00pm 31.9 25.5 -6.4 8 16.8 S 19 30 10 16 1015.5 1014.4 0.0
13/02:30pm 31.5 25.5 -6.7 8 16.6 ESE 17 20 9 11 1016.0 1014.9 0.0
13/02:00pm 32.0 25.5 -6.3 8 16.8 S 20 33 11 18 1016.5 1015.4 0.0
13/01:30pm 32.6 26.8 -4.3 9 16.9 S 17 41 9 22 1017.0 1015.9 0.0
13/01:00pm 30.7 24.1 -7.3 8 16.2 SSE 20 32 11 17 1017.8 1016.8 0.0
13/12:30pm 30.0 23.1 -6.3 9 15.7 SSE 22 33 12 18 1018.2 1017.2 0.0
13/12:00pm 29.6 22.9 -3.9 11 15.0 SSE 22 33 12 18 1018.7 1017.7 0.0
13/11:30am 28.3 20.8 -4.9 11 14.5 SSE 26 33 14 18 1019.2 1018.2 0.0
13/11:00am 28.3 21.0 -2.7 13 14.1 SSE 26 39 14 21 1019.9 1018.8 0.0

Other Formats:

Comma delimited format used in spreadsheet applications
http://www.bom.gov.au/fwo/IDQ60801/IDQ60801.94255.axf

JavaScript Object Notation format (JSON) in row-major order
http://www.bom.gov.au/fwo/IDQ60801/IDQ60801.94255.json